sensor_id;sensor_type;location;lat;lon;timestamp;temperature;humidity
2945;DHT22;1482;51.398;7.128;2024-03-17T00:01:36;6.50;1.00
2945;DHT22;1482;51.398;7.128;2024-03-17T00:04:02;6.50;1.00
2945;DHT22;1482;51.398;7.128;2024-03-17T00:06:28;6.50;1.00
2945;DHT22;1482;51.398;7.128;2024-03-17T00:08:54;6.50;1.00
2945;DHT22;1482;51.398;7.128;2024-03-17T00:11:20;6.50;1.00
2945;DHT22;1482;51.398;7.128;2024-03-17T00:13:46;6.50;1.00
2945;DHT22;1482;51.398;7.128;2024-03-17T00:16:12;6.30;1.00
2945;DHT22;1482;51.398;7.128;2024-03-17T00:18:39;6.40;1.00
2945;DHT22;1482;51.398;7.128;2024-03-17T00:21:04;6.40;1.00
2945;DHT22;1482;51.398;7.128;2024-03-17T00:23:30;6.40;1.00
2945;DHT22;1482;51.398;7.128;2024-03-17T00:25:55;6.40;1.00
2945;DHT22;1482;51.398;7.128;2024-03-17T00:28:21;6.30;1.00
2945;DHT22;1482;51.398;7.128;2024-03-17T00:30:47;6.30;1.00
2945;DHT22;1482;51.398;7.128;2024-03-17T00:33:12;6.30;1.00
2945;DHT22;1482;51.398;7.128;2024-03-17T00:35:39;6.30;1.00
2945;DHT22;1482;51.398;7.128;2024-03-17T00:38:05;6.40;1.00
2945;DHT22;1482;51.398;7.128;2024-03-17T00:40:38;6.50;1.00
2945;DHT22;1482;51.398;7.128;2024-03-17T00:43:06;6.50;1.00
2945;DHT22;1482;51.398;7.128;2024-03-17T00:45:31;6.40;1.00
2945;DHT22;1482;51.398;7.128;2024-03-17T00:47:57;6.40;1.00
2945;DHT22;1482;51.398;7.128;2024-03-17T00:50:23;6.40;1.00
2945;DHT22;1482;51.398;7.128;2024-03-17T00:52:48;6.30;1.00
2945;DHT22;1482;51.398;7.128;2024-03-17T00:55:14;6.30;1.00
2945;DHT22;1482;51.398;7.128;2024-03-17T00:57:40;6.40;1.00
2945;DHT22;1482;51.398;7.128;2024-03-17T01:00:06;6.40;1.00
2945;DHT22;1482;51.398;7.128;2024-03-17T01:02:32;6.40;1.00
2945;DHT22;1482;51.398;7.128;2024-03-17T01:04:57;6.40;1.00
2945;DHT22;1482;51.398;7.128;2024-03-17T01:07:23;6.40;1.00
2945;DHT22;1482;51.398;7.128;2024-03-17T01:09:49;6.40;1.00
2945;DHT22;1482;51.398;7.128;2024-03-17T01:12:14;6.40;1.00
2945;DHT22;1482;51.398;7.128;2024-03-17T01:14:43;6.40;1.00
2945;DHT22;1482;51.398;7.128;2024-03-17T01:17:09;6.50;1.00
2945;DHT22;1482;51.398;7.128;2024-03-17T01:19:34;6.50;1.00
2945;DHT22;1482;51.398;7.128;2024-03-17T01:22:00;6.50;1.00
2945;DHT22;1482;51.398;7.128;2024-03-17T01:24:26;6.40;1.00
2945;DHT22;1482;51.398;7.128;2024-03-17T01:26:59;6.50;1.00
2945;DHT22;1482;51.398;7.128;2024-03-17T01:29:25;6.50;1.00
2945;DHT22;1482;51.398;7.128;2024-03-17T01:31:51;6.40;1.00
2945;DHT22;1482;51.398;7.128;2024-03-17T01:34:18;6.40;1.00
2945;DHT22;1482;51.398;7.128;2024-03-17T01:36:44;6.40;1.00
2945;DHT22;1482;51.398;7.128;2024-03-17T01:39:09;6.30;1.00
2945;DHT22;1482;51.398;7.128;2024-03-17T01:41:37;6.40;1.00
2945;DHT22;1482;51.398;7.128;2024-03-17T01:44:02;6.40;1.00
2945;DHT22;1482;51.398;7.128;2024-03-17T01:46:28;6.40;1.00
2945;DHT22;1482;51.398;7.128;2024-03-17T01:48:54;6.40;1.00
2945;DHT22;1482;51.398;7.128;2024-03-17T01:51:19;6.40;1.00
2945;DHT22;1482;51.398;7.128;2024-03-17T01:53:45;6.40;1.00
2945;DHT22;1482;51.398;7.128;2024-03-17T01:56:11;6.30;1.00
2945;DHT22;1482;51.398;7.128;2024-03-17T01:58:37;6.30;1.00
2945;DHT22;1482;51.398;7.128;2024-03-17T02:01:03;6.30;1.00
2945;DHT22;1482;51.398;7.128;2024-03-17T02:03:30;6.20;1.00
2945;DHT22;1482;51.398;7.128;2024-03-17T02:05:55;6.10;1.00
2945;DHT22;1482;51.398;7.128;2024-03-17T02:08:21;6.10;1.00
2945;DHT22;1482;51.398;7.128;2024-03-17T02:10:53;6.20;1.00
2945;DHT22;1482;51.398;7.128;2024-03-17T02:13:19;6.10;1.00
2945;DHT22;1482;51.398;7.128;2024-03-17T02:15:44;6.10;1.00
2945;DHT22;1482;51.398;7.128;2024-03-17T02:18:10;6.10;1.00
2945;DHT22;1482;51.398;7.128;2024-03-17T02:20:36;6.10;1.00
2945;DHT22;1482;51.398;7.128;2024-03-17T02:23:33;6.10;1.00
2945;DHT22;1482;51.398;7.128;2024-03-17T02:25:59;6.10;1.00
2945;DHT22;1482;51.398;7.128;2024-03-17T02:28:24;6.00;1.00
2945;DHT22;1482;51.398;7.128;2024-03-17T02:30:50;6.10;1.00
2945;DHT22;1482;51.398;7.128;2024-03-17T02:33:15;6.10;1.00
2945;DHT22;1482;51.398;7.128;2024-03-17T02:35:41;6.10;1.00
2945;DHT22;1482;51.398;7.128;2024-03-17T02:38:06;6.20;1.00
2945;DHT22;1482;51.398;7.128;2024-03-17T02:40:34;6.20;1.00
2945;DHT22;1482;51.398;7.128;2024-03-17T02:42:59;6.20;1.00
2945;DHT22;1482;51.398;7.128;2024-03-17T02:45:25;6.20;1.00
2945;DHT22;1482;51.398;7.128;2024-03-17T02:47:51;6.10;1.00
2945;DHT22;1482;51.398;7.128;2024-03-17T02:50:17;6.20;1.00
2945;DHT22;1482;51.398;7.128;2024-03-17T02:52:43;6.20;1.00
2945;DHT22;1482;51.398;7.128;2024-03-17T02:55:08;6.20;1.00
2945;DHT22;1482;51.398;7.128;2024-03-17T02:57:34;6.20;1.00
2945;DHT22;1482;51.398;7.128;2024-03-17T02:59:59;6.10;1.00
2945;DHT22;1482;51.398;7.128;2024-03-17T03:02:25;6.20;1.00
2945;DHT22;1482;51.398;7.128;2024-03-17T03:04:50;6.00;1.00
2945;DHT22;1482;51.398;7.128;2024-03-17T03:07:16;6.00;1.00
2945;DHT22;1482;51.398;7.128;2024-03-17T03:09:42;6.00;1.00
2945;DHT22;1482;51.398;7.128;2024-03-17T03:12:07;6.00;1.00
2945;DHT22;1482;51.398;7.128;2024-03-17T03:14:33;6.00;1.00
2945;DHT22;1482;51.398;7.128;2024-03-17T03:16:59;6.10;1.00
2945;DHT22;1482;51.398;7.128;2024-03-17T03:19:26;6.00;1.00
2945;DHT22;1482;51.398;7.128;2024-03-17T03:21:52;6.00;1.00
2945;DHT22;1482;51.398;7.128;2024-03-17T03:24:18;6.10;1.00
2945;DHT22;1482;51.398;7.128;2024-03-17T03:26:43;6.00;1.00
2945;DHT22;1482;51.398;7.128;2024-03-17T03:29:10;6.00;1.00
2945;DHT22;1482;51.398;7.128;2024-03-17T03:31:36;6.10;1.00
2945;DHT22;1482;51.398;7.128;2024-03-17T03:34:04;6.00;1.00
2945;DHT22;1482;51.398;7.128;2024-03-17T03:36:33;6.00;1.00
2945;DHT22;1482;51.398;7.128;2024-03-17T03:38:58;6.10;1.00
2945;DHT22;1482;51.398;7.128;2024-03-17T03:41:24;6.10;1.00
2945;DHT22;1482;51.398;7.128;2024-03-17T03:43:50;6.10;1.00
2945;DHT22;1482;51.398;7.128;2024-03-17T03:46:16;6.10;1.00
2945;DHT22;1482;51.398;7.128;2024-03-17T03:48:41;6.00;1.00
2945;DHT22;1482;51.398;7.128;2024-03-17T03:51:08;6.00;1.00
2945;DHT22;1482;51.398;7.128;2024-03-17T03:53:35;5.90;1.00
2945;DHT22;1482;51.398;7.128;2024-03-17T03:56:03;6.00;1.00
2945;DHT22;1482;51.398;7.128;2024-03-17T03:58:34;6.00;1.00
2945;DHT22;1482;51.398;7.128;2024-03-17T04:01:04;6.00;1.00
2945;DHT22;1482;51.398;7.128;2024-03-17T04:03:30;6.00;1.00
2945;DHT22;1482;51.398;7.128;2024-03-17T04:06:09;6.00;1.00
2945;DHT22;1482;51.398;7.128;2024-03-17T04:08:36;5.90;1.00
2945;DHT22;1482;51.398;7.128;2024-03-17T04:11:03;5.90;1.00
2945;DHT22;1482;51.398;7.128;2024-03-17T04:13:30;5.90;1.00
2945;DHT22;1482;51.398;7.128;2024-03-17T04:15:56;5.80;1.00
2945;DHT22;1482;51.398;7.128;2024-03-17T04:18:24;5.90;1.00
2945;DHT22;1482;51.398;7.128;2024-03-17T04:20:56;5.90;1.00
2945;DHT22;1482;51.398;7.128;2024-03-17T04:23:22;5.90;1.00
2945;DHT22;1482;51.398;7.128;2024-03-17T04:25:50;5.90;1.00
2945;DHT22;1482;51.398;7.128;2024-03-17T04:28:16;5.90;1.00
2945;DHT22;1482;51.398;7.128;2024-03-17T04:30:41;6.00;1.00
2945;DHT22;1482;51.398;7.128;2024-03-17T04:33:11;6.00;1.00
2945;DHT22;1482;51.398;7.128;2024-03-17T04:35:37;6.00;1.00
2945;DHT22;1482;51.398;7.128;2024-03-17T04:38:03;6.00;1.00
2945;DHT22;1482;51.398;7.128;2024-03-17T04:40:28;6.00;1.00
2945;DHT22;1482;51.398;7.128;2024-03-17T04:42:54;6.10;1.00
2945;DHT22;1482;51.398;7.128;2024-03-17T04:45:20;6.10;1.00
2945;DHT22;1482;51.398;7.128;2024-03-17T04:47:45;6.20;1.00
2945;DHT22;1482;51.398;7.128;2024-03-17T04:50:12;6.20;1.00
2945;DHT22;1482;51.398;7.128;2024-03-17T04:52:38;6.30;1.00
2945;DHT22;1482;51.398;7.128;2024-03-17T04:55:04;6.30;1.00
2945;DHT22;1482;51.398;7.128;2024-03-17T04:57:30;6.40;1.00
2945;DHT22;1482;51.398;7.128;2024-03-17T04:59:55;6.40;1.00
2945;DHT22;1482;51.398;7.128;2024-03-17T05:02:21;6.40;1.00
2945;DHT22;1482;51.398;7.128;2024-03-17T05:04:48;6.50;1.00
2945;DHT22;1482;51.398;7.128;2024-03-17T05:07:14;6.50;1.00
2945;DHT22;1482;51.398;7.128;2024-03-17T05:09:39;6.50;1.00
2945;DHT22;1482;51.398;7.128;2024-03-17T05:12:05;6.50;1.00
2945;DHT22;1482;51.398;7.128;2024-03-17T05:14:33;6.60;1.00
2945;DHT22;1482;51.398;7.128;2024-03-17T05:17:02;6.50;1.00
2945;DHT22;1482;51.398;7.128;2024-03-17T05:19:27;6.60;1.00
2945;DHT22;1482;51.398;7.128;2024-03-17T05:21:53;6.50;1.00
2945;DHT22;1482;51.398;7.128;2024-03-17T05:24:19;6.40;1.00
2945;DHT22;1482;51.398;7.128;2024-03-17T05:26:45;6.40;1.00
2945;DHT22;1482;51.398;7.128;2024-03-17T05:29:11;6.40;1.00
2945;DHT22;1482;51.398;7.128;2024-03-17T05:31:36;6.40;1.00
2945;DHT22;1482;51.398;7.128;2024-03-17T05:34:05;6.40;1.00
2945;DHT22;1482;51.398;7.128;2024-03-17T05:36:31;6.30;1.00
2945;DHT22;1482;51.398;7.128;2024-03-17T05:38:59;6.30;1.00
2945;DHT22;1482;51.398;7.128;2024-03-17T05:41:25;6.30;1.00
2945;DHT22;1482;51.398;7.128;2024-03-17T05:43:51;6.30;1.00
2945;DHT22;1482;51.398;7.128;2024-03-17T05:46:17;6.30;1.00
2945;DHT22;1482;51.398;7.128;2024-03-17T05:48:43;6.40;1.00
2945;DHT22;1482;51.398;7.128;2024-03-17T05:51:12;6.40;1.00
2945;DHT22;1482;51.398;7.128;2024-03-17T05:53:39;6.40;1.00
2945;DHT22;1482;51.398;7.128;2024-03-17T05:56:06;6.40;1.00
2945;DHT22;1482;51.398;7.128;2024-03-17T05:58:33;6.30;1.00
2945;DHT22;1482;51.398;7.128;2024-03-17T06:01:02;6.50;1.00
2945;DHT22;1482;51.398;7.128;2024-03-17T06:03:27;6.50;1.00
2945;DHT22;1482;51.398;7.128;2024-03-17T06:05:53;6.70;1.00
2945;DHT22;1482;51.398;7.128;2024-03-17T06:08:19;6.80;1.00
2945;DHT22;1482;51.398;7.128;2024-03-17T06:10:46;6.80;1.00
2945;DHT22;1482;51.398;7.128;2024-03-17T06:13:13;7.10;1.00
2945;DHT22;1482;51.398;7.128;2024-03-17T06:15:40;7.20;1.00
2945;DHT22;1482;51.398;7.128;2024-03-17T06:18:06;7.50;1.00
2945;DHT22;1482;51.398;7.128;2024-03-17T06:20:42;7.90;1.00
2945;DHT22;1482;51.398;7.128;2024-03-17T06:23:09;8.30;1.00
2945;DHT22;1482;51.398;7.128;2024-03-17T06:25:44;8.70;1.00
2945;DHT22;1482;51.398;7.128;2024-03-17T06:28:11;8.90;1.00
2945;DHT22;1482;51.398;7.128;2024-03-17T06:30:46;9.70;1.00
2945;DHT22;1482;51.398;7.128;2024-03-17T06:33:16;10.50;1.00
2945;DHT22;1482;51.398;7.128;2024-03-17T06:35:44;11.20;1.00
2945;DHT22;1482;51.398;7.128;2024-03-17T06:38:10;12.20;1.00
2945;DHT22;1482;51.398;7.128;2024-03-17T06:40:37;12.20;1.00
2945;DHT22;1482;51.398;7.128;2024-03-17T06:43:03;13.90;1.00
2945;DHT22;1482;51.398;7.128;2024-03-17T06:45:29;16.60;1.00
2945;DHT22;1482;51.398;7.128;2024-03-17T06:47:55;18.30;1.00
2945;DHT22;1482;51.398;7.128;2024-03-17T06:50:21;20.50;1.00
2945;DHT22;1482;51.398;7.128;2024-03-17T06:52:46;22.80;1.00
2945;DHT22;1482;51.398;7.128;2024-03-17T06:55:12;24.60;1.00
2945;DHT22;1482;51.398;7.128;2024-03-17T06:57:38;24.50;1.00
2945;DHT22;1482;51.398;7.128;2024-03-17T07:00:04;24.40;1.00
2945;DHT22;1482;51.398;7.128;2024-03-17T07:02:31;23.50;1.00
2945;DHT22;1482;51.398;7.128;2024-03-17T07:04:58;22.40;1.00
2945;DHT22;1482;51.398;7.128;2024-03-17T07:07:26;23.50;1.00
2945;DHT22;1482;51.398;7.128;2024-03-17T07:09:52;24.80;1.00
2945;DHT22;1482;51.398;7.128;2024-03-17T07:12:18;25.70;1.00
2945;DHT22;1482;51.398;7.128;2024-03-17T07:14:44;27.10;1.00
2945;DHT22;1482;51.398;7.128;2024-03-17T07:17:09;28.40;1.00
2945;DHT22;1482;51.398;7.128;2024-03-17T07:19:35;29.70;1.00
2945;DHT22;1482;51.398;7.128;2024-03-17T07:22:01;31.20;1.20
2945;DHT22;1482;51.398;7.128;2024-03-17T07:24:27;30.80;3.70
2945;DHT22;1482;51.398;7.128;2024-03-17T07:26:53;32.20;2.60
2945;DHT22;1482;51.398;7.128;2024-03-17T07:29:18;33.00;7.40
2945;DHT22;1482;51.398;7.128;2024-03-17T07:31:44;34.30;13.80
2945;DHT22;1482;51.398;7.128;2024-03-17T07:34:10;34.70;16.10
2945;DHT22;1482;51.398;7.128;2024-03-17T07:36:35;34.60;15.10
2945;DHT22;1482;51.398;7.128;2024-03-17T07:39:01;34.80;15.40
2945;DHT22;1482;51.398;7.128;2024-03-17T07:41:27;35.20;15.50
2945;DHT22;1482;51.398;7.128;2024-03-17T07:43:53;35.50;16.10
2945;DHT22;1482;51.398;7.128;2024-03-17T07:46:18;34.70;10.30
2945;DHT22;1482;51.398;7.128;2024-03-17T07:48:44;33.40;1.30
2945;DHT22;1482;51.398;7.128;2024-03-17T07:51:12;31.70;1.00
2945;DHT22;1482;51.398;7.128;2024-03-17T07:53:39;30.20;1.00
2945;DHT22;1482;51.398;7.128;2024-03-17T07:56:09;28.40;1.00
2945;DHT22;1482;51.398;7.128;2024-03-17T07:58:36;28.30;1.00
2945;DHT22;1482;51.398;7.128;2024-03-17T08:01:04;28.10;1.00
2945;DHT22;1482;51.398;7.128;2024-03-17T08:03:32;28.90;1.00
2945;DHT22;1482;51.398;7.128;2024-03-17T08:05:58;30.10;1.00
2945;DHT22;1482;51.398;7.128;2024-03-17T08:08:24;31.70;1.00
2945;DHT22;1482;51.398;7.128;2024-03-17T08:10:50;32.30;1.00
2945;DHT22;1482;51.398;7.128;2024-03-17T08:13:17;31.90;1.00
2945;DHT22;1482;51.398;7.128;2024-03-17T08:15:44;32.00;1.00
2945;DHT22;1482;51.398;7.128;2024-03-17T08:18:14;31.90;1.00
2945;DHT22;1482;51.398;7.128;2024-03-17T08:20:40;31.90;1.00
2945;DHT22;1482;51.398;7.128;2024-03-17T08:23:06;30.90;1.00
2945;DHT22;1482;51.398;7.128;2024-03-17T08:25:33;30.80;1.00
2945;DHT22;1482;51.398;7.128;2024-03-17T08:27:59;32.10;1.00
2945;DHT22;1482;51.398;7.128;2024-03-17T08:30:27;33.60;1.00
2945;DHT22;1482;51.398;7.128;2024-03-17T08:32:53;33.80;1.00
2945;DHT22;1482;51.398;7.128;2024-03-17T08:35:19;35.10;1.00
2945;DHT22;1482;51.398;7.128;2024-03-17T08:37:44;35.60;1.00
2945;DHT22;1482;51.398;7.128;2024-03-17T08:40:10;36.60;1.00
2945;DHT22;1482;51.398;7.128;2024-03-17T08:42:37;36.50;1.00
2945;DHT22;1482;51.398;7.128;2024-03-17T08:45:03;37.50;1.00
2945;DHT22;1482;51.398;7.128;2024-03-17T08:47:29;38.00;2.80
2945;DHT22;1482;51.398;7.128;2024-03-17T08:49:54;37.80;1.20
2945;DHT22;1482;51.398;7.128;2024-03-17T08:52:20;37.00;1.00
2945;DHT22;1482;51.398;7.128;2024-03-17T08:54:47;34.00;1.00
2945;DHT22;1482;51.398;7.128;2024-03-17T08:57:15;31.90;1.00
2945;DHT22;1482;51.398;7.128;2024-03-17T08:59:41;30.80;1.00
2945;DHT22;1482;51.398;7.128;2024-03-17T09:02:11;29.60;1.00
2945;DHT22;1482;51.398;7.128;2024-03-17T09:04:38;28.90;1.00
2945;DHT22;1482;51.398;7.128;2024-03-17T09:07:03;27.90;1.00
2945;DHT22;1482;51.398;7.128;2024-03-17T09:09:29;27.30;1.00
2945;DHT22;1482;51.398;7.128;2024-03-17T09:11:55;26.50;1.00
2945;DHT22;1482;51.398;7.128;2024-03-17T09:14:20;25.80;1.00
2945;DHT22;1482;51.398;7.128;2024-03-17T09:16:47;25.50;1.00
2945;DHT22;1482;51.398;7.128;2024-03-17T09:19:13;24.60;1.00
2945;DHT22;1482;51.398;7.128;2024-03-17T09:21:38;23.90;1.00
2945;DHT22;1482;51.398;7.128;2024-03-17T09:24:06;23.40;1.00
2945;DHT22;1482;51.398;7.128;2024-03-17T09:26:33;21.90;1.00
2945;DHT22;1482;51.398;7.128;2024-03-17T09:28:59;21.00;1.00
2945;DHT22;1482;51.398;7.128;2024-03-17T09:31:25;20.50;1.00
2945;DHT22;1482;51.398;7.128;2024-03-17T09:33:51;19.90;1.00
2945;DHT22;1482;51.398;7.128;2024-03-17T09:36:17;19.60;1.00
2945;DHT22;1482;51.398;7.128;2024-03-17T09:38:43;19.20;1.00
2945;DHT22;1482;51.398;7.128;2024-03-17T09:41:23;18.60;1.00
2945;DHT22;1482;51.398;7.128;2024-03-17T09:43:56;18.30;1.00
2945;DHT22;1482;51.398;7.128;2024-03-17T09:46:23;18.00;1.00
2945;DHT22;1482;51.398;7.128;2024-03-17T09:48:49;17.90;1.00
2945;DHT22;1482;51.398;7.128;2024-03-17T09:51:23;17.70;1.00
2945;DHT22;1482;51.398;7.128;2024-03-17T09:53:49;17.40;1.00
2945;DHT22;1482;51.398;7.128;2024-03-17T09:56:17;17.20;1.00
2945;DHT22;1482;51.398;7.128;2024-03-17T09:58:45;17.10;1.00
2945;DHT22;1482;51.398;7.128;2024-03-17T10:01:10;16.60;1.00
2945;DHT22;1482;51.398;7.128;2024-03-17T10:03:50;16.30;1.00
2945;DHT22;1482;51.398;7.128;2024-03-17T10:06:20;16.20;1.00
2945;DHT22;1482;51.398;7.128;2024-03-17T10:08:48;15.90;1.00
2945;DHT22;1482;51.398;7.128;2024-03-17T10:11:15;15.90;1.00
2945;DHT22;1482;51.398;7.128;2024-03-17T10:13:42;15.90;1.00
2945;DHT22;1482;51.398;7.128;2024-03-17T10:16:24;16.10;1.00
2945;DHT22;1482;51.398;7.128;2024-03-17T10:18:50;16.30;1.00
2945;DHT22;1482;51.398;7.128;2024-03-17T10:21:26;16.40;1.00
2945;DHT22;1482;51.398;7.128;2024-03-17T10:24:26;16.40;1.00
2945;DHT22;1482;51.398;7.128;2024-03-17T10:26:56;16.40;1.00
2945;DHT22;1482;51.398;7.128;2024-03-17T10:29:24;16.50;1.00
2945;DHT22;1482;51.398;7.128;2024-03-17T10:31:54;16.50;1.00
2945;DHT22;1482;51.398;7.128;2024-03-17T10:34:21;16.40;1.00
2945;DHT22;1482;51.398;7.128;2024-03-17T10:36:50;16.40;1.00
2945;DHT22;1482;51.398;7.128;2024-03-17T10:39:27;16.50;1.00
2945;DHT22;1482;51.398;7.128;2024-03-17T10:42:03;16.60;1.00
2945;DHT22;1482;51.398;7.128;2024-03-17T10:44:30;16.80;1.00
2945;DHT22;1482;51.398;7.128;2024-03-17T10:46:57;16.80;1.00
2945;DHT22;1482;51.398;7.128;2024-03-17T10:49:34;16.80;1.00
2945;DHT22;1482;51.398;7.128;2024-03-17T10:52:04;16.90;1.00
2945;DHT22;1482;51.398;7.128;2024-03-17T10:54:31;17.00;1.00
2945;DHT22;1482;51.398;7.128;2024-03-17T10:57:03;17.20;1.00
2945;DHT22;1482;51.398;7.128;2024-03-17T10:59:39;17.20;1.00
2945;DHT22;1482;51.398;7.128;2024-03-17T11:04:42;17.00;1.00
2945;DHT22;1482;51.398;7.128;2024-03-17T11:07:15;16.70;1.00
2945;DHT22;1482;51.398;7.128;2024-03-17T11:09:41;16.50;1.00
2945;DHT22;1482;51.398;7.128;2024-03-17T11:15:35;16.60;1.00
2945;DHT22;1482;51.398;7.128;2024-03-17T11:20:35;16.30;1.00
2945;DHT22;1482;51.398;7.128;2024-03-17T11:23:01;16.20;1.00
2945;DHT22;1482;51.398;7.128;2024-03-17T11:27:56;16.60;1.00
2945;DHT22;1482;51.398;7.128;2024-03-17T11:38:56;17.00;1.00
2945;DHT22;1482;51.398;7.128;2024-03-17T11:49:40;17.10;1.00
2945;DHT22;1482;51.398;7.128;2024-03-17T11:52:09;17.00;1.00
2945;DHT22;1482;51.398;7.128;2024-03-17T11:54:37;17.00;1.00
2945;DHT22;1482;51.398;7.128;2024-03-17T11:57:14;16.80;1.00
2945;DHT22;1482;51.398;7.128;2024-03-17T11:59:45;16.60;1.00
2945;DHT22;1482;51.398;7.128;2024-03-17T12:02:31;16.40;1.00
2945;DHT22;1482;51.398;7.128;2024-03-17T12:05:00;16.30;1.00
2945;DHT22;1482;51.398;7.128;2024-03-17T12:07:26;16.10;1.00
2945;DHT22;1482;51.398;7.128;2024-03-17T12:09:54;16.00;1.00
2945;DHT22;1482;51.398;7.128;2024-03-17T12:12:23;16.00;1.00
2945;DHT22;1482;51.398;7.128;2024-03-17T12:14:49;16.20;1.00
2945;DHT22;1482;51.398;7.128;2024-03-17T12:17:22;16.30;1.00
2945;DHT22;1482;51.398;7.128;2024-03-17T12:19:48;16.40;1.00
2945;DHT22;1482;51.398;7.128;2024-03-17T12:22:20;16.50;1.00
2945;DHT22;1482;51.398;7.128;2024-03-17T12:24:51;16.70;1.00
2945;DHT22;1482;51.398;7.128;2024-03-17T12:27:21;17.00;1.00
2945;DHT22;1482;51.398;7.128;2024-03-17T12:29:54;17.20;1.00
2945;DHT22;1482;51.398;7.128;2024-03-17T12:32:22;17.50;1.00
2945;DHT22;1482;51.398;7.128;2024-03-17T12:34:52;17.40;1.00
2945;DHT22;1482;51.398;7.128;2024-03-17T12:37:20;17.50;1.00
2945;DHT22;1482;51.398;7.128;2024-03-17T12:39:49;17.40;1.00
2945;DHT22;1482;51.398;7.128;2024-03-17T12:42:22;17.60;1.00
2945;DHT22;1482;51.398;7.128;2024-03-17T12:44:59;17.60;1.00
2945;DHT22;1482;51.398;7.128;2024-03-17T12:47:30;17.60;1.00
2945;DHT22;1482;51.398;7.128;2024-03-17T12:49:56;17.50;1.00
2945;DHT22;1482;51.398;7.128;2024-03-17T12:52:26;17.60;1.00
2945;DHT22;1482;51.398;7.128;2024-03-17T12:55:09;17.60;1.00
2945;DHT22;1482;51.398;7.128;2024-03-17T13:00:55;17.20;1.00
2945;DHT22;1482;51.398;7.128;2024-03-17T13:03:26;17.20;1.00
2945;DHT22;1482;51.398;7.128;2024-03-17T13:05:52;17.50;1.00
2945;DHT22;1482;51.398;7.128;2024-03-17T13:08:17;17.50;1.00
2945;DHT22;1482;51.398;7.128;2024-03-17T13:10:43;17.70;1.00
2945;DHT22;1482;51.398;7.128;2024-03-17T13:13:10;18.00;1.00
2945;DHT22;1482;51.398;7.128;2024-03-17T13:15:37;18.00;1.00
2945;DHT22;1482;51.398;7.128;2024-03-17T13:18:04;18.00;1.00
2945;DHT22;1482;51.398;7.128;2024-03-17T13:20:31;18.00;1.00
2945;DHT22;1482;51.398;7.128;2024-03-17T13:22:58;18.00;1.00
2945;DHT22;1482;51.398;7.128;2024-03-17T13:25:26;17.90;1.00
2945;DHT22;1482;51.398;7.128;2024-03-17T13:27:55;17.90;1.00
2945;DHT22;1482;51.398;7.128;2024-03-17T13:30:22;18.00;1.00
2945;DHT22;1482;51.398;7.128;2024-03-17T13:32:49;17.90;1.00
2945;DHT22;1482;51.398;7.128;2024-03-17T13:35:22;17.70;1.00
2945;DHT22;1482;51.398;7.128;2024-03-17T13:37:49;17.80;1.00
2945;DHT22;1482;51.398;7.128;2024-03-17T13:40:17;17.90;1.00
2945;DHT22;1482;51.398;7.128;2024-03-17T13:42:48;17.80;1.00
2945;DHT22;1482;51.398;7.128;2024-03-17T13:45:15;17.40;1.00
2945;DHT22;1482;51.398;7.128;2024-03-17T13:47:45;17.30;1.00
2945;DHT22;1482;51.398;7.128;2024-03-17T13:50:11;17.30;1.00
2945;DHT22;1482;51.398;7.128;2024-03-17T13:52:39;17.20;1.00
2945;DHT22;1482;51.398;7.128;2024-03-17T13:55:06;17.30;1.00
2945;DHT22;1482;51.398;7.128;2024-03-17T13:57:33;17.10;1.00
2945;DHT22;1482;51.398;7.128;2024-03-17T13:59:58;17.20;1.00
2945;DHT22;1482;51.398;7.128;2024-03-17T14:02:24;17.30;1.00
2945;DHT22;1482;51.398;7.128;2024-03-17T14:04:49;17.30;1.00
2945;DHT22;1482;51.398;7.128;2024-03-17T14:07:15;17.30;1.00
2945;DHT22;1482;51.398;7.128;2024-03-17T14:09:41;17.20;1.00
2945;DHT22;1482;51.398;7.128;2024-03-17T14:12:08;17.10;1.00
2945;DHT22;1482;51.398;7.128;2024-03-17T14:14:33;17.00;1.00
2945;DHT22;1482;51.398;7.128;2024-03-17T14:16:59;16.50;1.00
2945;DHT22;1482;51.398;7.128;2024-03-17T14:19:25;16.30;1.00
2945;DHT22;1482;51.398;7.128;2024-03-17T14:21:50;16.10;1.00
2945;DHT22;1482;51.398;7.128;2024-03-17T14:24:16;16.20;1.00
2945;DHT22;1482;51.398;7.128;2024-03-17T14:26:42;16.20;1.00
2945;DHT22;1482;51.398;7.128;2024-03-17T14:29:08;16.20;1.00
2945;DHT22;1482;51.398;7.128;2024-03-17T14:31:33;16.30;1.00
2945;DHT22;1482;51.398;7.128;2024-03-17T14:34:03;16.30;1.00
2945;DHT22;1482;51.398;7.128;2024-03-17T14:36:31;16.30;1.00
2945;DHT22;1482;51.398;7.128;2024-03-17T14:38:58;16.20;1.00
2945;DHT22;1482;51.398;7.128;2024-03-17T14:41:24;16.10;1.00
2945;DHT22;1482;51.398;7.128;2024-03-17T14:43:52;16.20;1.00
2945;DHT22;1482;51.398;7.128;2024-03-17T14:46:18;16.20;1.00
2945;DHT22;1482;51.398;7.128;2024-03-17T14:48:43;16.20;1.00
2945;DHT22;1482;51.398;7.128;2024-03-17T14:51:09;16.20;1.00
2945;DHT22;1482;51.398;7.128;2024-03-17T14:53:35;16.00;1.00
2945;DHT22;1482;51.398;7.128;2024-03-17T14:56:08;15.90;1.00
2945;DHT22;1482;51.398;7.128;2024-03-17T14:58:35;15.70;1.00
2945;DHT22;1482;51.398;7.128;2024-03-17T15:01:00;15.70;1.00
2945;DHT22;1482;51.398;7.128;2024-03-17T15:03:26;15.70;1.00
2945;DHT22;1482;51.398;7.128;2024-03-17T15:05:53;15.80;1.00
2945;DHT22;1482;51.398;7.128;2024-03-17T15:08:18;16.00;1.00
2945;DHT22;1482;51.398;7.128;2024-03-17T15:10:44;16.00;1.00
2945;DHT22;1482;51.398;7.128;2024-03-17T15:13:10;15.80;1.00
2945;DHT22;1482;51.398;7.128;2024-03-17T15:15:36;15.80;1.00
2945;DHT22;1482;51.398;7.128;2024-03-17T15:18:03;15.80;1.00
2945;DHT22;1482;51.398;7.128;2024-03-17T15:20:29;15.80;1.00
2945;DHT22;1482;51.398;7.128;2024-03-17T15:22:54;15.90;1.00
2945;DHT22;1482;51.398;7.128;2024-03-17T15:25:20;15.90;1.00
2945;DHT22;1482;51.398;7.128;2024-03-17T15:27:46;15.90;1.00
2945;DHT22;1482;51.398;7.128;2024-03-17T15:30:13;15.90;1.00
2945;DHT22;1482;51.398;7.128;2024-03-17T15:32:47;15.60;1.00
2945;DHT22;1482;51.398;7.128;2024-03-17T15:35:13;15.50;1.00
2945;DHT22;1482;51.398;7.128;2024-03-17T15:37:39;15.40;1.00
2945;DHT22;1482;51.398;7.128;2024-03-17T15:40:06;15.40;1.00
2945;DHT22;1482;51.398;7.128;2024-03-17T15:42:32;15.40;1.00
2945;DHT22;1482;51.398;7.128;2024-03-17T15:44:58;15.50;1.00
2945;DHT22;1482;51.398;7.128;2024-03-17T15:47:24;15.30;1.00
2945;DHT22;1482;51.398;7.128;2024-03-17T15:49:53;15.30;1.00
2945;DHT22;1482;51.398;7.128;2024-03-17T15:52:18;15.40;1.00
2945;DHT22;1482;51.398;7.128;2024-03-17T15:54:45;15.40;1.00
2945;DHT22;1482;51.398;7.128;2024-03-17T15:57:11;15.40;1.00
2945;DHT22;1482;51.398;7.128;2024-03-17T15:59:36;15.50;1.00
2945;DHT22;1482;51.398;7.128;2024-03-17T16:02:02;15.60;1.00
2945;DHT22;1482;51.398;7.128;2024-03-17T16:04:28;15.60;1.00
2945;DHT22;1482;51.398;7.128;2024-03-17T16:06:54;15.30;1.00
2945;DHT22;1482;51.398;7.128;2024-03-17T16:09:22;15.40;1.00
2945;DHT22;1482;51.398;7.128;2024-03-17T16:11:48;15.40;1.00
2945;DHT22;1482;51.398;7.128;2024-03-17T16:14:13;15.30;1.00
2945;DHT22;1482;51.398;7.128;2024-03-17T16:16:42;15.20;1.00
2945;DHT22;1482;51.398;7.128;2024-03-17T16:19:07;15.20;1.00
2945;DHT22;1482;51.398;7.128;2024-03-17T16:21:36;15.30;1.00
2945;DHT22;1482;51.398;7.128;2024-03-17T16:24:07;15.30;1.00
2945;DHT22;1482;51.398;7.128;2024-03-17T16:26:35;15.20;1.00
2945;DHT22;1482;51.398;7.128;2024-03-17T16:29:02;15.30;1.00
2945;DHT22;1482;51.398;7.128;2024-03-17T16:31:28;15.20;1.00
2945;DHT22;1482;51.398;7.128;2024-03-17T16:33:54;15.20;1.00
2945;DHT22;1482;51.398;7.128;2024-03-17T16:36:22;15.10;1.00
2945;DHT22;1482;51.398;7.128;2024-03-17T16:38:48;15.10;1.00
2945;DHT22;1482;51.398;7.128;2024-03-17T16:41:14;15.00;1.00
2945;DHT22;1482;51.398;7.128;2024-03-17T16:43:58;14.90;1.00
2945;DHT22;1482;51.398;7.128;2024-03-17T16:49:19;14.70;1.00
2945;DHT22;1482;51.398;7.128;2024-03-17T16:51:48;14.40;1.00
2945;DHT22;1482;51.398;7.128;2024-03-17T16:54:15;14.20;1.00
2945;DHT22;1482;51.398;7.128;2024-03-17T16:56:41;14.20;1.00
2945;DHT22;1482;51.398;7.128;2024-03-17T16:59:07;14.10;1.00